sensor_id;sensor_type;location;lat;lon;timestamp;P1;durP1;ratioP1;P2;durP2;ratioP2
29906;SDS011;16776;50.958;10.994;2023-07-20T00:00:06;1.30;;;0.80;;
29906;SDS011;16776;50.958;10.994;2023-07-20T00:02:33;0.82;;;0.80;;
29906;SDS011;16776;50.958;10.994;2023-07-20T00:05:00;0.73;;;0.70;;
29906;SDS011;16776;50.958;10.994;2023-07-20T00:07:28;2.03;;;0.70;;
29906;SDS011;16776;50.958;10.994;2023-07-20T00:09:54;1.50;;;0.80;;
29906;SDS011;16776;50.958;10.994;2023-07-20T00:12:24;0.65;;;0.65;;
29906;SDS011;16776;50.958;10.994;2023-07-20T00:14:50;0.60;;;0.60;;
29906;SDS011;16776;50.958;10.994;2023-07-20T00:17:18;1.48;;;0.90;;
29906;SDS011;16776;50.958;10.994;2023-07-20T00:19:45;0.77;;;0.77;;
29906;SDS011;16776;50.958;10.994;2023-07-20T00:22:13;0.98;;;0.98;;
29906;SDS011;16776;50.958;10.994;2023-07-20T00:24:41;0.95;;;0.60;;
29906;SDS011;16776;50.958;10.994;2023-07-20T00:27:07;1.27;;;0.70;;
29906;SDS011;16776;50.958;10.994;2023-07-20T00:29:34;2.67;;;0.88;;
29906;SDS011;16776;50.958;10.994;2023-07-20T00:32:01;1.15;;;1.05;;
29906;SDS011;16776;50.958;10.994;2023-07-20T00:34:29;1.70;;;1.10;;
29906;SDS011;16776;50.958;10.994;2023-07-20T00:36:59;2.35;;;1.05;;
29906;SDS011;16776;50.958;10.994;2023-07-20T00:39:25;1.65;;;1.00;;
29906;SDS011;16776;50.958;10.994;2023-07-20T00:41:53;1.20;;;0.70;;
29906;SDS011;16776;50.958;10.994;2023-07-20T00:44:20;1.45;;;1.00;;
29906;SDS011;16776;50.958;10.994;2023-07-20T00:46:46;0.73;;;0.73;;
29906;SDS011;16776;50.958;10.994;2023-07-20T00:49:13;3.72;;;1.27;;
29906;SDS011;16776;50.958;10.994;2023-07-20T00:51:40;0.88;;;0.77;;
29906;SDS011;16776;50.958;10.994;2023-07-20T00:54:07;0.93;;;0.93;;
29906;SDS011;16776;50.958;10.994;2023-07-20T00:56:34;2.65;;;0.90;;
29906;SDS011;16776;50.958;10.994;2023-07-20T00:59:02;2.25;;;0.90;;
29906;SDS011;16776;50.958;10.994;2023-07-20T01:01:29;1.20;;;1.10;;
29906;SDS011;16776;50.958;10.994;2023-07-20T01:03:55;0.77;;;0.77;;
29906;SDS011;16776;50.958;10.994;2023-07-20T01:06:25;2.00;;;0.60;;
29906;SDS011;16776;50.958;10.994;2023-07-20T01:08:58;2.55;;;0.98;;
29906;SDS011;16776;50.958;10.994;2023-07-20T01:11:36;5.07;;;0.80;;
29906;SDS011;16776;50.958;10.994;2023-07-20T01:14:10;0.68;;;0.68;;
29906;SDS011;16776;50.958;10.994;2023-07-20T01:16:40;1.55;;;0.85;;
29906;SDS011;16776;50.958;10.994;2023-07-20T01:19:07;2.80;;;1.10;;
29906;SDS011;16776;50.958;10.994;2023-07-20T01:21:37;3.03;;;0.70;;
29906;SDS011;16776;50.958;10.994;2023-07-20T01:24:30;1.00;;;0.85;;
29906;SDS011;16776;50.958;10.994;2023-07-20T01:27:32;0.75;;;0.75;;
29906;SDS011;16776;50.958;10.994;2023-07-20T01:30:34;0.95;;;0.95;;
29906;SDS011;16776;50.958;10.994;2023-07-20T01:33:13;0.80;;;0.75;;
29906;SDS011;16776;50.958;10.994;2023-07-20T01:35:42;0.98;;;0.98;;
29906;SDS011;16776;50.958;10.994;2023-07-20T01:38:11;1.80;;;0.80;;
29906;SDS011;16776;50.958;10.994;2023-07-20T01:40:39;1.67;;;0.88;;
29906;SDS011;16776;50.958;10.994;2023-07-20T01:43:06;2.63;;;0.90;;
29906;SDS011;16776;50.958;10.994;2023-07-20T01:45:33;1.42;;;1.13;;
29906;SDS011;16776;50.958;10.994;2023-07-20T01:48:01;1.77;;;1.42;;
29906;SDS011;16776;50.958;10.994;2023-07-20T01:50:32;1.02;;;0.93;;
29906;SDS011;16776;50.958;10.994;2023-07-20T01:52:59;1.10;;;1.05;;
29906;SDS011;16776;50.958;10.994;2023-07-20T01:55:26;1.92;;;0.70;;
29906;SDS011;16776;50.958;10.994;2023-07-20T01:57:53;1.20;;;0.73;;
29906;SDS011;16776;50.958;10.994;2023-07-20T02:00:21;0.80;;;0.70;;
29906;SDS011;16776;50.958;10.994;2023-07-20T02:02:49;1.88;;;1.10;;
29906;SDS011;16776;50.958;10.994;2023-07-20T02:05:16;0.90;;;0.90;;
29906;SDS011;16776;50.958;10.994;2023-07-20T02:07:44;0.90;;;0.90;;
29906;SDS011;16776;50.958;10.994;2023-07-20T02:10:10;2.75;;;0.80;;
29906;SDS011;16776;50.958;10.994;2023-07-20T02:12:37;0.85;;;0.85;;
29906;SDS011;16776;50.958;10.994;2023-07-20T02:15:04;0.85;;;0.85;;
29906;SDS011;16776;50.958;10.994;2023-07-20T02:17:31;1.75;;;0.80;;
29906;SDS011;16776;50.958;10.994;2023-07-20T02:19:57;0.80;;;0.80;;
29906;SDS011;16776;50.958;10.994;2023-07-20T02:22:24;2.10;;;1.10;;
29906;SDS011;16776;50.958;10.994;2023-07-20T02:24:52;2.03;;;0.85;;
29906;SDS011;16776;50.958;10.994;2023-07-20T02:27:18;2.25;;;0.93;;
29906;SDS011;16776;50.958;10.994;2023-07-20T02:29:45;3.88;;;0.90;;
29906;SDS011;16776;50.958;10.994;2023-07-20T02:32:11;1.15;;;1.05;;
29906;SDS011;16776;50.958;10.994;2023-07-20T02:34:40;1.88;;;0.85;;
29906;SDS011;16776;50.958;10.994;2023-07-20T02:37:07;1.98;;;0.90;;
29906;SDS011;16776;50.958;10.994;2023-07-20T02:39:38;4.20;;;1.45;;
29906;SDS011;16776;50.958;10.994;2023-07-20T02:42:06;1.23;;;1.00;;
29906;SDS011;16776;50.958;10.994;2023-07-20T02:44:35;2.45;;;1.00;;
29906;SDS011;16776;50.958;10.994;2023-07-20T02:47:01;1.17;;;0.75;;
29906;SDS011;16776;50.958;10.994;2023-07-20T02:49:28;2.58;;;1.30;;
29906;SDS011;16776;50.958;10.994;2023-07-20T02:51:54;3.25;;;1.00;;
29906;SDS011;16776;50.958;10.994;2023-07-20T02:54:21;1.00;;;0.90;;
29906;SDS011;16776;50.958;10.994;2023-07-20T02:56:50;2.47;;;0.80;;
29906;SDS011;16776;50.958;10.994;2023-07-20T02:59:18;2.53;;;0.73;;
29906;SDS011;16776;50.958;10.994;2023-07-20T03:01:44;2.47;;;1.00;;
29906;SDS011;16776;50.958;10.994;2023-07-20T03:04:11;1.02;;;0.70;;
29906;SDS011;16776;50.958;10.994;2023-07-20T03:06:37;0.70;;;0.70;;
29906;SDS011;16776;50.958;10.994;2023-07-20T03:09:04;5.10;;;0.90;;
29906;SDS011;16776;50.958;10.994;2023-07-20T03:11:32;2.40;;;0.90;;
29906;SDS011;16776;50.958;10.994;2023-07-20T03:13:58;2.05;;;0.95;;
29906;SDS011;16776;50.958;10.994;2023-07-20T03:16:26;2.95;;;0.90;;
29906;SDS011;16776;50.958;10.994;2023-07-20T03:18:53;1.33;;;0.82;;
29906;SDS011;16776;50.958;10.994;2023-07-20T03:21:19;1.77;;;0.95;;
29906;SDS011;16776;50.958;10.994;2023-07-20T03:23:46;1.15;;;1.05;;
29906;SDS011;16776;50.958;10.994;2023-07-20T03:26:13;3.33;;;0.98;;
29906;SDS011;16776;50.958;10.994;2023-07-20T03:28:40;3.78;;;1.02;;
29906;SDS011;16776;50.958;10.994;2023-07-20T03:31:07;2.50;;;0.98;;
29906;SDS011;16776;50.958;10.994;2023-07-20T03:33:35;1.73;;;1.23;;
29906;SDS011;16776;50.958;10.994;2023-07-20T03:36:02;0.70;;;0.70;;
29906;SDS011;16776;50.958;10.994;2023-07-20T03:38:30;1.45;;;0.93;;
29906;SDS011;16776;50.958;10.994;2023-07-20T03:40:58;1.30;;;0.95;;
29906;SDS011;16776;50.958;10.994;2023-07-20T03:43:26;1.42;;;1.02;;
29906;SDS011;16776;50.958;10.994;2023-07-20T03:45:53;1.60;;;0.95;;
29906;SDS011;16776;50.958;10.994;2023-07-20T03:48:21;3.22;;;1.50;;
29906;SDS011;16776;50.958;10.994;2023-07-20T03:50:50;1.95;;;0.98;;
29906;SDS011;16776;50.958;10.994;2023-07-20T03:53:18;0.85;;;0.77;;
29906;SDS011;16776;50.958;10.994;2023-07-20T03:55:45;1.40;;;1.30;;
29906;SDS011;16776;50.958;10.994;2023-07-20T03:58:12;1.65;;;0.70;;
29906;SDS011;16776;50.958;10.994;2023-07-20T04:00:39;1.35;;;0.70;;
29906;SDS011;16776;50.958;10.994;2023-07-20T04:03:05;2.58;;;0.70;;
29906;SDS011;16776;50.958;10.994;2023-07-20T04:05:32;2.67;;;0.70;;
29906;SDS011;16776;50.958;10.994;2023-07-20T04:08:00;2.28;;;0.65;;
29906;SDS011;16776;50.958;10.994;2023-07-20T04:10:27;0.60;;;0.60;;
29906;SDS011;16776;50.958;10.994;2023-07-20T04:12:53;3.25;;;0.90;;
29906;SDS011;16776;50.958;10.994;2023-07-20T04:15:20;1.38;;;0.80;;
29906;SDS011;16776;50.958;10.994;2023-07-20T04:17:46;0.73;;;0.50;;
29906;SDS011;16776;50.958;10.994;2023-07-20T04:20:13;1.08;;;0.68;;
29906;SDS011;16776;50.958;10.994;2023-07-20T04:22:39;0.80;;;0.55;;
29906;SDS011;16776;50.958;10.994;2023-07-20T04:25:08;0.70;;;0.55;;
29906;SDS011;16776;50.958;10.994;2023-07-20T04:27:35;1.15;;;0.80;;
29906;SDS011;16776;50.958;10.994;2023-07-20T04:30:01;0.65;;;0.63;;
29906;SDS011;16776;50.958;10.994;2023-07-20T04:32:28;2.80;;;0.82;;
29906;SDS011;16776;50.958;10.994;2023-07-20T04:34:55;2.40;;;1.10;;
29906;SDS011;16776;50.958;10.994;2023-07-20T04:37:22;3.33;;;1.00;;
29906;SDS011;16776;50.958;10.994;2023-07-20T04:39:48;1.88;;;0.77;;
29906;SDS011;16776;50.958;10.994;2023-07-20T04:42:17;1.42;;;0.77;;
29906;SDS011;16776;50.958;10.994;2023-07-20T04:44:43;2.38;;;0.73;;
29906;SDS011;16776;50.958;10.994;2023-07-20T04:47:10;2.15;;;0.68;;
29906;SDS011;16776;50.958;10.994;2023-07-20T04:49:36;0.85;;;0.85;;
29906;SDS011;16776;50.958;10.994;2023-07-20T04:52:07;5.32;;;0.70;;
29906;SDS011;16776;50.958;10.994;2023-07-20T04:54:34;0.63;;;0.60;;
29906;SDS011;16776;50.958;10.994;2023-07-20T04:57:00;0.98;;;0.68;;
29906;SDS011;16776;50.958;10.994;2023-07-20T04:59:28;1.15;;;0.75;;
29906;SDS011;16776;50.958;10.994;2023-07-20T05:01:55;2.00;;;0.93;;
29906;SDS011;16776;50.958;10.994;2023-07-20T05:04:21;2.13;;;0.70;;
29906;SDS011;16776;50.958;10.994;2023-07-20T05:06:50;1.02;;;0.68;;
29906;SDS011;16776;50.958;10.994;2023-07-20T05:09:16;1.00;;;0.80;;
29906;SDS011;16776;50.958;10.994;2023-07-20T05:11:43;1.77;;;0.98;;
29906;SDS011;16776;50.958;10.994;2023-07-20T05:14:13;2.60;;;1.00;;
29906;SDS011;16776;50.958;10.994;2023-07-20T05:16:41;3.65;;;0.88;;
29906;SDS011;16776;50.958;10.994;2023-07-20T05:19:07;1.50;;;1.00;;
29906;SDS011;16776;50.958;10.994;2023-07-20T05:21:34;2.60;;;0.88;;
29906;SDS011;16776;50.958;10.994;2023-07-20T05:24:01;3.10;;;0.90;;
29906;SDS011;16776;50.958;10.994;2023-07-20T05:26:27;3.70;;;0.80;;
29906;SDS011;16776;50.958;10.994;2023-07-20T05:28:56;0.70;;;0.70;;
29906;SDS011;16776;50.958;10.994;2023-07-20T05:31:23;1.30;;;0.98;;
29906;SDS011;16776;50.958;10.994;2023-07-20T05:33:52;1.95;;;1.00;;
29906;SDS011;16776;50.958;10.994;2023-07-20T05:36:19;2.33;;;0.90;;
29906;SDS011;16776;50.958;10.994;2023-07-20T05:38:46;2.67;;;0.88;;
29906;SDS011;16776;50.958;10.994;2023-07-20T05:41:14;2.15;;;1.05;;
29906;SDS011;16776;50.958;10.994;2023-07-20T05:43:40;1.20;;;1.08;;
29906;SDS011;16776;50.958;10.994;2023-07-20T05:46:08;2.85;;;0.95;;
29906;SDS011;16776;50.958;10.994;2023-07-20T05:48:35;3.63;;;0.85;;
29906;SDS011;16776;50.958;10.994;2023-07-20T05:51:03;1.73;;;0.95;;
29906;SDS011;16776;50.958;10.994;2023-07-20T05:53:29;1.42;;;0.98;;
29906;SDS011;16776;50.958;10.994;2023-07-20T05:55:58;0.90;;;0.82;;
29906;SDS011;16776;50.958;10.994;2023-07-20T05:58:25;2.53;;;0.95;;
29906;SDS011;16776;50.958;10.994;2023-07-20T06:00:53;1.90;;;0.82;;
29906;SDS011;16776;50.958;10.994;2023-07-20T06:03:19;4.00;;;1.02;;
29906;SDS011;16776;50.958;10.994;2023-07-20T06:05:47;1.17;;;0.80;;
29906;SDS011;16776;50.958;10.994;2023-07-20T06:08:15;1.15;;;1.05;;
29906;SDS011;16776;50.958;10.994;2023-07-20T06:10:41;0.85;;;0.80;;
29906;SDS011;16776;50.958;10.994;2023-07-20T06:13:11;2.67;;;1.30;;
29906;SDS011;16776;50.958;10.994;2023-07-20T06:15:37;1.65;;;1.15;;
29906;SDS011;16776;50.958;10.994;2023-07-20T06:18:06;2.35;;;1.27;;
29906;SDS011;16776;50.958;10.994;2023-07-20T06:20:32;3.85;;;1.10;;
29906;SDS011;16776;50.958;10.994;2023-07-20T06:22:59;2.55;;;1.52;;
29906;SDS011;16776;50.958;10.994;2023-07-20T06:25:27;2.17;;;1.30;;
29906;SDS011;16776;50.958;10.994;2023-07-20T06:27:56;1.42;;;0.88;;
29906;SDS011;16776;50.958;10.994;2023-07-20T06:30:25;1.20;;;1.10;;
29906;SDS011;16776;50.958;10.994;2023-07-20T06:32:51;1.08;;;0.98;;
29906;SDS011;16776;50.958;10.994;2023-07-20T06:35:18;1.73;;;1.13;;
29906;SDS011;16776;50.958;10.994;2023-07-20T06:37:45;1.38;;;0.95;;
29906;SDS011;16776;50.958;10.994;2023-07-20T06:40:12;1.20;;;0.77;;
29906;SDS011;16776;50.958;10.994;2023-07-20T06:42:40;1.13;;;1.00;;
29906;SDS011;16776;50.958;10.994;2023-07-20T06:45:06;2.60;;;0.85;;
29906;SDS011;16776;50.958;10.994;2023-07-20T06:47:33;2.55;;;0.93;;
29906;SDS011;16776;50.958;10.994;2023-07-20T06:50:00;0.88;;;0.88;;
29906;SDS011;16776;50.958;10.994;2023-07-20T06:52:27;2.00;;;0.90;;
29906;SDS011;16776;50.958;10.994;2023-07-20T06:54:56;1.88;;;0.80;;
29906;SDS011;16776;50.958;10.994;2023-07-20T06:57:22;2.67;;;0.90;;
29906;SDS011;16776;50.958;10.994;2023-07-20T06:59:50;0.60;;;0.60;;
29906;SDS011;16776;50.958;10.994;2023-07-20T07:02:17;0.85;;;0.80;;
29906;SDS011;16776;50.958;10.994;2023-07-20T07:04:44;0.63;;;0.63;;
29906;SDS011;16776;50.958;10.994;2023-07-20T07:07:12;0.98;;;0.68;;
29906;SDS011;16776;50.958;10.994;2023-07-20T07:09:40;0.60;;;0.60;;
29906;SDS011;16776;50.958;10.994;2023-07-20T07:12:07;0.82;;;0.80;;
29906;SDS011;16776;50.958;10.994;2023-07-20T07:14:34;0.75;;;0.60;;
29906;SDS011;16776;50.958;10.994;2023-07-20T07:17:02;0.57;;;0.55;;
29906;SDS011;16776;50.958;10.994;2023-07-20T07:19:29;0.73;;;0.73;;
29906;SDS011;16776;50.958;10.994;2023-07-20T07:21:55;0.75;;;0.75;;
29906;SDS011;16776;50.958;10.994;2023-07-20T07:24:22;1.60;;;0.70;;
29906;SDS011;16776;50.958;10.994;2023-07-20T07:26:48;1.05;;;0.70;;
29906;SDS011;16776;50.958;10.994;2023-07-20T07:29:15;1.33;;;0.75;;
29906;SDS011;16776;50.958;10.994;2023-07-20T07:31:42;1.23;;;0.40;;
29906;SDS011;16776;50.958;10.994;2023-07-20T07:34:12;0.80;;;0.80;;
29906;SDS011;16776;50.958;10.994;2023-07-20T07:36:39;1.50;;;0.95;;
29906;SDS011;16776;50.958;10.994;2023-07-20T07:39:06;1.05;;;0.90;;
29906;SDS011;16776;50.958;10.994;2023-07-20T07:41:32;0.77;;;0.75;;
29906;SDS011;16776;50.958;10.994;2023-07-20T07:43:59;1.00;;;0.93;;
29906;SDS011;16776;50.958;10.994;2023-07-20T07:46:25;1.17;;;0.85;;
29906;SDS011;16776;50.958;10.994;2023-07-20T07:48:55;1.02;;;0.82;;
29906;SDS011;16776;50.958;10.994;2023-07-20T07:51:25;0.93;;;0.77;;
29906;SDS011;16776;50.958;10.994;2023-07-20T07:53:53;0.88;;;0.70;;
29906;SDS011;16776;50.958;10.994;2023-07-20T07:56:20;1.02;;;0.90;;
29906;SDS011;16776;50.958;10.994;2023-07-20T07:58:47;0.98;;;0.80;;
29906;SDS011;16776;50.958;10.994;2023-07-20T08:01:14;0.88;;;0.80;;
29906;SDS011;16776;50.958;10.994;2023-07-20T08:03:41;0.82;;;0.80;;
29906;SDS011;16776;50.958;10.994;2023-07-20T08:06:08;1.27;;;0.90;;
29906;SDS011;16776;50.958;10.994;2023-07-20T08:08:36;0.80;;;0.80;;
29906;SDS011;16776;50.958;10.994;2023-07-20T08:11:03;1.02;;;0.82;;
29906;SDS011;16776;50.958;10.994;2023-07-20T08:13:33;1.23;;;0.85;;
29906;SDS011;16776;50.958;10.994;2023-07-20T08:16:00;1.42;;;0.95;;
29906;SDS011;16776;50.958;10.994;2023-07-20T08:18:27;0.88;;;0.88;;
29906;SDS011;16776;50.958;10.994;2023-07-20T08:20:57;0.52;;;0.52;;
29906;SDS011;16776;50.958;10.994;2023-07-20T08:23:23;0.82;;;0.75;;
29906;SDS011;16776;50.958;10.994;2023-07-20T08:25:52;0.77;;;0.77;;
29906;SDS011;16776;50.958;10.994;2023-07-20T08:28:19;1.17;;;1.00;;
29906;SDS011;16776;50.958;10.994;2023-07-20T08:30:46;1.10;;;0.90;;
29906;SDS011;16776;50.958;10.994;2023-07-20T08:33:14;0.90;;;0.90;;
29906;SDS011;16776;50.958;10.994;2023-07-20T08:35:43;2.15;;;1.00;;
29906;SDS011;16776;50.958;10.994;2023-07-20T08:38:09;2.03;;;1.13;;
29906;SDS011;16776;50.958;10.994;2023-07-20T08:40:39;1.30;;;1.20;;
29906;SDS011;16776;50.958;10.994;2023-07-20T08:43:07;1.08;;;1.02;;
29906;SDS011;16776;50.958;10.994;2023-07-20T08:45:34;1.13;;;1.02;;
29906;SDS011;16776;50.958;10.994;2023-07-20T08:48:05;0.88;;;0.88;;
29906;SDS011;16776;50.958;10.994;2023-07-20T08:50:32;0.85;;;0.85;;
29906;SDS011;16776;50.958;10.994;2023-07-20T08:53:00;0.85;;;0.77;;
29906;SDS011;16776;50.958;10.994;2023-07-20T08:55:27;0.80;;;0.80;;
29906;SDS011;16776;50.958;10.994;2023-07-20T08:57:55;1.15;;;1.05;;
29906;SDS011;16776;50.958;10.994;2023-07-20T09:00:24;0.82;;;0.80;;
29906;SDS011;16776;50.958;10.994;2023-07-20T09:02:52;0.85;;;0.85;;
29906;SDS011;16776;50.958;10.994;2023-07-20T09:05:19;0.57;;;0.57;;
29906;SDS011;16776;50.958;10.994;2023-07-20T09:07:46;0.73;;;0.73;;
29906;SDS011;16776;50.958;10.994;2023-07-20T09:10:13;0.93;;;0.75;;
29906;SDS011;16776;50.958;10.994;2023-07-20T09:12:41;0.70;;;0.70;;
29906;SDS011;16776;50.958;10.994;2023-07-20T09:15:10;0.90;;;0.90;;
29906;SDS011;16776;50.958;10.994;2023-07-20T09:17:39;1.13;;;0.90;;
29906;SDS011;16776;50.958;10.994;2023-07-20T09:20:11;0.80;;;0.57;;
29906;SDS011;16776;50.958;10.994;2023-07-20T09:22:38;0.50;;;0.50;;
29906;SDS011;16776;50.958;10.994;2023-07-20T09:25:06;0.50;;;0.50;;
29906;SDS011;16776;50.958;10.994;2023-07-20T09:27:37;0.90;;;0.82;;
29906;SDS011;16776;50.958;10.994;2023-07-20T09:30:05;0.68;;;0.68;;
29906;SDS011;16776;50.958;10.994;2023-07-20T09:32:39;1.33;;;0.60;;
29906;SDS011;16776;50.958;10.994;2023-07-20T09:35:12;1.02;;;0.77;;
29906;SDS011;16776;50.958;10.994;2023-07-20T09:37:40;0.85;;;0.80;;
29906;SDS011;16776;50.958;10.994;2023-07-20T09:40:11;0.75;;;0.75;;
29906;SDS011;16776;50.958;10.994;2023-07-20T09:42:42;1.05;;;0.80;;
29906;SDS011;16776;50.958;10.994;2023-07-20T09:45:09;0.60;;;0.60;;
29906;SDS011;16776;50.958;10.994;2023-07-20T09:47:36;0.60;;;0.60;;
29906;SDS011;16776;50.958;10.994;2023-07-20T09:50:05;1.85;;;0.85;;
29906;SDS011;16776;50.958;10.994;2023-07-20T09:52:40;0.80;;;0.80;;
29906;SDS011;16776;50.958;10.994;2023-07-20T09:55:09;0.70;;;0.70;;
29906;SDS011;16776;50.958;10.994;2023-07-20T09:57:37;1.02;;;0.82;;
29906;SDS011;16776;50.958;10.994;2023-07-20T10:00:04;0.70;;;0.70;;
29906;SDS011;16776;50.958;10.994;2023-07-20T10:02:37;0.60;;;0.60;;
29906;SDS011;16776;50.958;10.994;2023-07-20T10:05:10;1.10;;;0.70;;
29906;SDS011;16776;50.958;10.994;2023-07-20T10:07:40;0.60;;;0.60;;
29906;SDS011;16776;50.958;10.994;2023-07-20T10:10:11;0.70;;;0.70;;
29906;SDS011;16776;50.958;10.994;2023-07-20T10:12:37;0.65;;;0.65;;
29906;SDS011;16776;50.958;10.994;2023-07-20T10:15:08;0.98;;;0.70;;
29906;SDS011;16776;50.958;10.994;2023-07-20T10:17:39;0.73;;;0.73;;
29906;SDS011;16776;50.958;10.994;2023-07-20T10:20:16;0.50;;;0.50;;
29906;SDS011;16776;50.958;10.994;2023-07-20T10:22:45;0.73;;;0.73;;
29906;SDS011;16776;50.958;10.994;2023-07-20T10:25:14;0.47;;;0.47;;
29906;SDS011;16776;50.958;10.994;2023-07-20T10:27:44;0.47;;;0.47;;
29906;SDS011;16776;50.958;10.994;2023-07-20T10:30:11;0.40;;;0.40;;
29906;SDS011;16776;50.958;10.994;2023-07-20T10:32:38;0.70;;;0.57;;
29906;SDS011;16776;50.958;10.994;2023-07-20T10:35:12;0.30;;;0.30;;
29906;SDS011;16776;50.958;10.994;2023-07-20T10:37:47;0.75;;;0.40;;
29906;SDS011;16776;50.958;10.994;2023-07-20T10:43:09;0.40;;;0.40;;
29906;SDS011;16776;50.958;10.994;2023-07-20T10:45:40;0.40;;;0.40;;
29906;SDS011;16776;50.958;10.994;2023-07-20T10:48:14;0.45;;;0.45;;
29906;SDS011;16776;50.958;10.994;2023-07-20T10:50:41;0.40;;;0.40;;
29906;SDS011;16776;50.958;10.994;2023-07-20T10:53:18;0.73;;;0.50;;
29906;SDS011;16776;50.958;10.994;2023-07-20T10:55:48;0.50;;;0.50;;
29906;SDS011;16776;50.958;10.994;2023-07-20T10:58:15;1.05;;;0.57;;
29906;SDS011;16776;50.958;10.994;2023-07-20T11:00:54;0.38;;;0.38;;
29906;SDS011;16776;50.958;10.994;2023-07-20T11:03:30;0.68;;;0.60;;
29906;SDS011;16776;50.958;10.994;2023-07-20T11:05:58;0.50;;;0.50;;
29906;SDS011;16776;50.958;10.994;2023-07-20T11:08:39;0.20;;;0.20;;
29906;SDS011;16776;50.958;10.994;2023-07-20T11:11:23;0.20;;;0.20;;
29906;SDS011;16776;50.958;10.994;2023-07-20T11:13:54;0.20;;;0.20;;
29906;SDS011;16776;50.958;10.994;2023-07-20T11:16:33;0.40;;;0.40;;
29906;SDS011;16776;50.958;10.994;2023-07-20T11:19:01;0.25;;;0.25;;
29906;SDS011;16776;50.958;10.994;2023-07-20T11:21:29;0.15;;;0.15;;
29906;SDS011;16776;50.958;10.994;2023-07-20T11:24:03;0.20;;;0.20;;
29906;SDS011;16776;50.958;10.994;2023-07-20T11:26:39;0.40;;;0.40;;
29906;SDS011;16776;50.958;10.994;2023-07-20T11:29:06;0.30;;;0.30;;
29906;SDS011;16776;50.958;10.994;2023-07-20T11:31:34;0.22;;;0.22;;
29906;SDS011;16776;50.958;10.994;2023-07-20T11:34:02;0.45;;;0.22;;
29906;SDS011;16776;50.958;10.994;2023-07-20T11:36:28;0.15;;;0.15;;
29906;SDS011;16776;50.958;10.994;2023-07-20T11:38:55;0.30;;;0.30;;
29906;SDS011;16776;50.958;10.994;2023-07-20T11:41:25;0.20;;;0.20;;
29906;SDS011;16776;50.958;10.994;2023-07-20T11:43:53;0.30;;;0.30;;
29906;SDS011;16776;50.958;10.994;2023-07-20T11:46:21;0.57;;;0.20;;
29906;SDS011;16776;50.958;10.994;2023-07-20T11:48:47;0.20;;;0.20;;
29906;SDS011;16776;50.958;10.994;2023-07-20T11:51:15;0.10;;;0.10;;
29906;SDS011;16776;50.958;10.994;2023-07-20T11:53:42;0.30;;;0.30;;
29906;SDS011;16776;50.958;10.994;2023-07-20T11:56:11;0.20;;;0.20;;
29906;SDS011;16776;50.958;10.994;2023-07-20T11:58:44;0.75;;;0.40;;
29906;SDS011;16776;50.958;10.994;2023-07-20T12:01:14;0.20;;;0.20;;
29906;SDS011;16776;50.958;10.994;2023-07-20T12:03:41;0.10;;;0.10;;
29906;SDS011;16776;50.958;10.994;2023-07-20T12:06:08;0.25;;;0.25;;
29906;SDS011;16776;50.958;10.994;2023-07-20T12:08:37;0.30;;;0.30;;
29906;SDS011;16776;50.958;10.994;2023-07-20T12:13:35;0.38;;;0.38;;
29906;SDS011;16776;50.958;10.994;2023-07-20T12:16:16;0.25;;;0.25;;
29906;SDS011;16776;50.958;10.994;2023-07-20T12:18:43;0.22;;;0.20;;
29906;SDS011;16776;50.958;10.994;2023-07-20T12:21:10;0.20;;;0.20;;
29906;SDS011;16776;50.958;10.994;2023-07-20T12:23:38;0.13;;;0.13;;
29906;SDS011;16776;50.958;10.994;2023-07-20T12:26:08;0.35;;;0.35;;
29906;SDS011;16776;50.958;10.994;2023-07-20T12:28:39;0.60;;;0.50;;
29906;SDS011;16776;50.958;10.994;2023-07-20T12:31:07;0.40;;;0.40;;
29906;SDS011;16776;50.958;10.994;2023-07-20T12:33:36;0.40;;;0.40;;
29906;SDS011;16776;50.958;10.994;2023-07-20T12:36:05;0.32;;;0.32;;
29906;SDS011;16776;50.958;10.994;2023-07-20T12:38:31;0.30;;;0.30;;
29906;SDS011;16776;50.958;10.994;2023-07-20T12:40:59;0.30;;;0.30;;
29906;SDS011;16776;50.958;10.994;2023-07-20T12:43:26;0.30;;;0.30;;
29906;SDS011;16776;50.958;10.994;2023-07-20T12:45:55;0.30;;;0.30;;
29906;SDS011;16776;50.958;10.994;2023-07-20T12:48:22;0.32;;;0.32;;
29906;SDS011;16776;50.958;10.994;2023-07-20T12:50:50;0.35;;;0.35;;
29906;SDS011;16776;50.958;10.994;2023-07-20T12:53:20;0.30;;;0.30;;
29906;SDS011;16776;50.958;10.994;2023-07-20T12:55:52;0.22;;;0.22;;
29906;SDS011;16776;50.958;10.994;2023-07-20T12:58:18;0.20;;;0.20;;
29906;SDS011;16776;50.958;10.994;2023-07-20T13:00:45;0.28;;;0.28;;
29906;SDS011;16776;50.958;10.994;2023-07-20T13:03:15;0.30;;;0.30;;
29906;SDS011;16776;50.958;10.994;2023-07-20T13:05:43;0.30;;;0.30;;
29906;SDS011;16776;50.958;10.994;2023-07-20T13:08:11;0.20;;;0.20;;
29906;SDS011;16776;50.958;10.994;2023-07-20T13:10:38;0.25;;;0.20;;
29906;SDS011;16776;50.958;10.994;2023-07-20T13:13:05;0.25;;;0.25;;
29906;SDS011;16776;50.958;10.994;2023-07-20T13:15:32;0.40;;;0.40;;
29906;SDS011;16776;50.958;10.994;2023-07-20T13:17:59;0.28;;;0.28;;
29906;SDS011;16776;50.958;10.994;2023-07-20T13:20:26;0.30;;;0.30;;
29906;SDS011;16776;50.958;10.994;2023-07-20T13:22:53;0.30;;;0.30;;
29906;SDS011;16776;50.958;10.994;2023-07-20T13:25:21;0.40;;;0.40;;
29906;SDS011;16776;50.958;10.994;2023-07-20T13:30:18;0.10;;;0.10;;
29906;SDS011;16776;50.958;10.994;2023-07-20T13:32:46;0.47;;;0.40;;
29906;SDS011;16776;50.958;10.994;2023-07-20T13:35:13;0.57;;;0.57;;
29906;SDS011;16776;50.958;10.994;2023-07-20T13:37:40;0.30;;;0.30;;
29906;SDS011;16776;50.958;10.994;2023-07-20T13:40:07;1.48;;;0.30;;
29906;SDS011;16776;50.958;10.994;2023-07-20T13:42:38;0.20;;;0.20;;
29906;SDS011;16776;50.958;10.994;2023-07-20T13:45:05;0.40;;;0.40;;
29906;SDS011;16776;50.958;10.994;2023-07-20T13:47:32;0.28;;;0.28;;
29906;SDS011;16776;50.958;10.994;2023-07-20T13:50:01;0.30;;;0.30;;
29906;SDS011;16776;50.958;10.994;2023-07-20T13:52:27;0.30;;;0.30;;
29906;SDS011;16776;50.958;10.994;2023-07-20T13:54:57;0.32;;;0.32;;
29906;SDS011;16776;50.958;10.994;2023-07-20T13:57:23;0.43;;;0.38;;
29906;SDS011;16776;50.958;10.994;2023-07-20T13:59:51;0.20;;;0.20;;
29906;SDS011;16776;50.958;10.994;2023-07-20T14:02:18;0.30;;;0.30;;
29906;SDS011;16776;50.958;10.994;2023-07-20T14:04:44;0.30;;;0.30;;
29906;SDS011;16776;50.958;10.994;2023-07-20T14:07:11;0.30;;;0.30;;
29906;SDS011;16776;50.958;10.994;2023-07-20T14:09:38;0.25;;;0.25;;
29906;SDS011;16776;50.958;10.994;2023-07-20T14:12:12;0.20;;;0.20;;
29906;SDS011;16776;50.958;10.994;2023-07-20T14:14:39;0.25;;;0.20;;
29906;SDS011;16776;50.958;10.994;2023-07-20T14:17:07;0.28;;;0.20;;
29906;SDS011;16776;50.958;10.994;2023-07-20T14:19:41;0.20;;;0.20;;
29906;SDS011;16776;50.958;10.994;2023-07-20T14:22:11;0.30;;;0.30;;
29906;SDS011;16776;50.958;10.994;2023-07-20T14:24:40;0.50;;;0.30;;
29906;SDS011;16776;50.958;10.994;2023-07-20T14:27:07;0.13;;;0.13;;
29906;SDS011;16776;50.958;10.994;2023-07-20T14:29:33;0.30;;;0.30;;
29906;SDS011;16776;50.958;10.994;2023-07-20T14:32:01;0.85;;;0.30;;
29906;SDS011;16776;50.958;10.994;2023-07-20T14:34:32;0.45;;;0.45;;
29906;SDS011;16776;50.958;10.994;2023-07-20T14:36:59;0.60;;;0.30;;
29906;SDS011;16776;50.958;10.994;2023-07-20T14:39:26;0.47;;;0.40;;
29906;SDS011;16776;50.958;10.994;2023-07-20T14:41:52;0.38;;;0.38;;
29906;SDS011;16776;50.958;10.994;2023-07-20T14:44:19;0.40;;;0.40;;
29906;SDS011;16776;50.958;10.994;2023-07-20T14:46:46;0.32;;;0.30;;